Flight Track Log - Related Links

Times and Time Zones

All times are in EDT time to prevent confusion due to time zone crossing. See the TYR848 flight status page for this flight to view local times or setup timezone preferences in your user account.

Time Position Orientation Groundspeed Altitude Reporting Facility
EDT Latitude Longitude Course Direction KTS MPH feet Rate Location/Type
Wed 09:07:00 AM 41.8202 19.5502 343° North  Level Estimated
Wed 09:08:00 AM 41.9013 19.5159 343° North  Level Estimated
Wed 09:09:00 AM 41.9824 19.4815 342° North  Level Estimated
Wed 09:10:00 AM 42.0634 19.4470 342° North  Level Estimated
Wed 09:11:00 AM 42.1445 19.4124 342° North  Level Estimated
Wed 09:12:00 AM 42.2255 19.3777 342° North  Level Estimated
Wed 09:13:00 AM 42.3065 19.3429 342° North  Level Estimated
Wed 09:14:00 AM 42.3875 19.3081 342° North  Level Estimated
Wed 09:15:00 AM 42.4685 19.2731 342° North  Level Estimated
Wed 09:16:00 AM 42.5495 19.2381 342° North  Level Estimated
Wed 09:17:00 AM 42.6305 19.2030 342° North  Level Estimated
Wed 09:18:00 AM 42.7114 19.1677 342° North  Level Estimated
Wed 09:19:00 AM 42.7924 19.1324 342° North  Level Estimated
Wed 09:20:00 AM 42.8733 19.0970 342° North  Level Estimated
Wed 09:21:00 AM 42.9543 19.0615 342° North  Level Estimated
Wed 09:22:00 AM 43.0352 19.0259 342° North  Level Estimated
Wed 09:23:00 AM 43.1161 18.9902 342° North  Level Estimated
Wed 09:24:00 AM 43.1970 18.9545 342° North  Level Estimated
Wed 09:25:00 AM 43.2779 18.9186 342° North  Level Estimated
Wed 09:26:00 AM 43.3587 18.8826 342° North  Level Estimated
Wed 09:27:00 AM 43.4396 18.8465 342° North  Level Estimated
Wed 09:28:00 AM 43.5205 18.8104 342° North  Level Estimated
Wed 09:29:00 AM 43.6013 18.7741 342° North  Level Estimated
Wed 09:30:00 AM 43.6821 18.7378 342° North  Level Estimated
Wed 09:31:00 AM 43.7630 18.7013 342° North  Level Estimated
Wed 09:32:00 AM 43.8438 18.6647 342° North  Level Estimated
Wed 09:33:00 AM 43.9245 18.6281 342° North  Level Estimated
Wed 09:34:00 AM 44.0053 18.5913 342° North  Level Estimated
Wed 09:35:00 AM 44.0861 18.5545 342° North  Level Estimated
Wed 09:36:00 AM 44.1669 18.5175 342° North  Level Estimated
Wed 09:37:00 AM 44.2476 18.4805 342° North  Level Estimated
Wed 09:38:00 AM 44.3284 18.4433 342° North  Level Estimated
Wed 09:39:00 AM 44.4091 18.4060 342° North  Level Estimated
Wed 09:40:00 AM 44.4898 18.3687 342° North  Level Estimated
Wed 09:41:00 AM 44.5705 18.3312 342° North  Level Estimated
Wed 09:42:00 AM 44.6512 18.2936 342° North  Level Estimated
Wed 09:43:00 AM 44.7318 18.2560 342° North  Level Estimated
Wed 09:44:00 AM 44.8125 18.2182 342° North  Level Estimated
Wed 09:45:00 AM 44.8932 18.1803 342° North  Level Estimated
Wed 09:46:00 AM 44.9738 18.1423 342° North  Level Estimated
Wed 09:47:00 AM 45.0544 18.1042 342° North  Level Estimated
Wed 09:48:00 AM 45.1350 18.0660 342° North  Level Estimated
Wed 09:49:00 AM 45.2156 18.0277 341° North  Level Estimated
Wed 09:50:00 AM 45.2962 17.9893 341° North  Level Estimated
Wed 09:51:00 AM 45.3768 17.9507 341° North  Level Estimated
Wed 09:52:00 AM 45.4573 17.9121 341° North  Level Estimated
Wed 09:53:00 AM 45.5379 17.8733 341° North  Level Estimated
Wed 09:54:00 AM 45.6184 17.8345 341° North  Level Estimated
Wed 09:55:00 AM 45.6989 17.7955 341° North  Level Estimated
Wed 09:56:00 AM 45.7794 17.7564 341° North  Level Estimated
Wed 09:57:00 AM 45.8599 17.7172 341° North  Level Estimated
Wed 09:58:00 AM 45.9404 17.6779 341° North  Level Estimated
Wed 09:59:00 AM 46.0209 17.6384 341° North  Level Estimated
Wed 10:00:00 AM 46.1013 17.5989 341° North  Level Estimated
Wed 10:01:00 AM 46.1818 17.5592 341° North  Level Estimated
Wed 10:02:00 AM 46.2622 17.5194 341° North  Level Estimated
Wed 10:03:00 AM 46.3426 17.4796 341° North  Level Estimated
Wed 10:04:00 AM 46.4230 17.4396 341° North  Level Estimated
Wed 10:05:00 AM 46.5034 17.3994 341° North  Level Estimated
Wed 10:06:00 AM 46.5838 17.3592 341° North  Level Estimated
Wed 10:07:00 AM 46.6641 17.3188 341° North  Level Estimated
Wed 10:08:00 AM 46.7445 17.2783 341° North  Level Estimated
Wed 10:09:00 AM 46.8248 17.2377 341° North  Level Estimated
Wed 10:10:00 AM 46.9051 17.1970 341° North  Level Estimated
Wed 10:11:00 AM 46.9854 17.1561 341° North  Level Estimated
Wed 10:12:00 AM 47.0657 17.1151 341° North  Level Estimated
Wed 10:13:00 AM 47.1460 17.0740 341° North  Level Estimated
Wed 10:14:00 AM 47.2262 17.0328 341° North  Level Estimated
Wed 10:15:00 AM 47.3064 16.9915 341° North  Level Estimated
Wed 10:16:00 AM 47.3867 16.9500 341° North  Level Estimated
Wed 10:17:00 AM 47.4669 16.9084 341° North  Level Estimated
Wed 10:18:00 AM 47.5471 16.8666 341° North  Level Estimated
Wed 10:19:00 AM 47.6273 16.8248 341° North  Level Estimated
Wed 10:20:00 AM 47.7074 16.7828 341° North  Level Estimated
Wed 10:21:00 AM 47.7876 16.7407 341° North  Level Estimated
Wed 10:22:00 AM 47.8677 16.6985 341° North  Level Estimated
Wed 10:23:00 AM 47.9478 16.6561 340° North  Level Estimated
Wed 10:24:00 AM 48.0279 16.6136 340° North  Level Estimated
Wed 10:25:00 AM 48.1080 16.5709 340° North  Level Estimated
Wed 10:26:00 AM 48.1103 16.5697 340° North  Level Estimated
Wed 10:27:00 AM 48.1103 16.5697 146° Southeast  Level Estimated
Wed 10:28:00 AM 48.1103 16.5697 146° Southeast  Level Estimated
Wed 10:29:00 AM 48.1103 16.5697 146° Southeast  Level Estimated
Wed 10:30:00 AM 48.1103 16.5697 146° Southeast  Level Estimated
Wed 10:31:00 AM 48.1103 16.5697 146° Southeast  Level Estimated
Wed 10:32:00 AM 48.1103 16.5697 146° Southeast  Level Estimated

Login

Don't have an account? Register now (free) for customized features, flight alerts, and more!